Time;durP1;ratioP1;P1;durP2;ratioP2;P2;SDS_P1;SDS_P2;PMS_P1;PMS_P2;Temp;Humidity;BMP_temperature;BMP_pressure;BME280_temperature;BME280_humidity;BME280_pressure;Samples;Min_cycle;Max_cycle;Signal;HPM_P1;HPM_P2
2023/02/11 00:01:29;;;;;;;;;64.50;44.50;;;;;7.73;100.00;103525.09;5037455;28;45528;-74
2023/02/11 00:03:55;;;;;;;;;60.25;46.25;;;;;7.70;100.00;103524.88;5052415;28;45783;-72
2023/02/11 00:06:21;;;;;;;;;60.25;44.25;;;;;7.65;100.00;103509.63;5019521;28;45519;-73
2023/02/11 00:08:46;;;;;;;;;58.25;42.25;;;;;7.58;100.00;103514.47;5022204;28;47332;-74
2023/02/11 00:11:13;;;;;;;;;53.00;42.50;;;;;7.55;100.00;103511.63;5054047;28;45290;-73
2023/02/11 00:13:39;;;;;;;;;56.75;44.00;;;;;7.54;100.00;103522.97;5037323;28;46409;-73
2023/02/11 00:16:10;;;;;;;;;60.25;45.00;;;;;7.50;100.00;103518.31;5034515;28;45446;-72
2023/02/11 00:18:35;;;;;;;;;58.75;43.75;;;;;7.47;100.00;103526.00;5035529;28;45504;-73
2023/02/11 00:21:06;;;;;;;;;62.75;46.50;;;;;7.43;100.00;103523.06;5053695;28;57239;-73
2023/02/11 00:23:31;;;;;;;;;55.50;43.75;;;;;7.38;100.00;103520.13;5053398;28;46552;-73
2023/02/11 00:25:57;;;;;;;;;61.00;45.25;;;;;7.36;100.00;103527.00;5047595;28;60257;-73
2023/02/11 00:28:22;;;;;;;;;60.00;45.25;;;;;7.31;100.00;103513.56;5050608;28;45440;-72
2023/02/11 00:30:54;;;;;;;;;60.25;41.75;;;;;7.29;100.00;103514.25;5036896;28;46105;-73
2023/02/11 00:33:19;;;;;;;;;58.50;47.75;;;;;7.28;100.00;103518.59;5037726;28;46588;-72
2023/02/11 00:35:44;;;;;;;;;61.00;45.00;;;;;7.27;100.00;103522.03;5046865;28;56987;-73
2023/02/11 00:38:10;;;;;;;;;54.50;41.75;;;;;7.26;100.00;103521.94;5051223;28;53759;-73
2023/02/11 00:40:35;;;;;;;;;58.75;43.00;;;;;7.23;100.00;103517.38;5049532;28;45424;-73
2023/02/11 00:43:00;;;;;;;;;52.50;44.50;;;;;7.20;100.00;103509.28;5050691;28;63638;-72
2023/02/11 00:45:27;;;;;;;;;57.75;44.25;;;;;7.21;100.00;103511.09;5051143;28;55937;-72
2023/02/11 00:47:52;;;;;;;;;56.50;44.00;;;;;7.18;100.00;103504.72;5055139;28;45453;-74
2023/02/11 00:50:18;;;;;;;;;52.00;43.25;;;;;7.17;100.00;103506.44;5054987;28;45343;-72
2023/02/11 00:52:43;;;;;;;;;52.25;44.00;;;;;7.16;100.00;103512.50;5055695;28;46470;-73
2023/02/11 00:55:09;;;;;;;;;68.25;48.25;;;;;7.14;100.00;103511.50;5055384;28;45493;-73
2023/02/11 00:57:34;;;;;;;;;64.25;47.00;;;;;7.15;100.00;103505.44;5054490;28;45397;-72
2023/02/11 00:59:59;;;;;;;;;60.00;47.75;;;;;7.15;100.00;103507.16;5034449;28;46188;-72
2023/02/11 01:02:25;;;;;;;;;61.25;47.50;;;;;7.13;100.00;103508.75;5048555;28;46913;-72
2023/02/11 01:04:50;;;;;;;;;67.25;49.75;;;;;7.15;100.00;103505.44;5051363;28;47016;-72
2023/02/11 01:07:15;;;;;;;;;67.50;48.50;;;;;7.13;100.00;103493.00;5046156;28;49197;-73
2023/02/11 01:09:41;;;;;;;;;63.75;47.00;;;;;7.15;100.00;103489.69;5054792;28;54384;-73
2023/02/11 01:12:06;;;;;;;;;65.25;46.25;;;;;7.17;100.00;103498.56;5047666;28;59667;-74
2023/02/11 01:14:31;;;;;;;;;60.50;45.00;;;;;7.19;100.00;103490.78;5030560;28;45619;-73
2023/02/11 01:16:57;;;;;;;;;61.25;46.75;;;;;7.17;100.00;103485.44;5046266;28;46114;-73
2023/02/11 01:19:22;;;;;;;;;65.25;47.00;;;;;7.18;100.00;103484.63;5047124;28;50441;-73
2023/02/11 01:21:47;;;;;;;;;63.00;46.00;;;;;7.19;100.00;103496.03;5049283;28;47057;-73
2023/02/11 01:24:13;;;;;;;;;62.75;47.75;;;;;7.20;100.00;103495.25;5054034;28;45698;-73
2023/02/11 01:26:38;;;;;;;;;63.00;46.75;;;;;7.18;100.00;103503.00;5057364;28;52287;-73
2023/02/11 01:29:03;;;;;;;;;60.25;48.50;;;;;7.13;100.00;103500.88;5057742;28;53170;-73
2023/02/11 01:31:29;;;;;;;;;62.25;46.75;;;;;7.10;100.00;103496.34;5054018;28;45950;-72
2023/02/11 01:33:55;;;;;;;;;60.50;46.50;;;;;7.07;100.00;103494.41;5039325;28;45507;-73
2023/02/11 01:36:20;;;;;;;;;62.50;48.50;;;;;7.04;100.00;103490.66;5036391;28;50300;-73
2023/02/11 01:38:45;;;;;;;;;38.00;27.50;;;;;7.02;100.00;103494.88;5038619;28;45583;-73
2023/02/11 01:41:13;;;;;;;;;64.00;46.50;;;;;7.00;100.00;103493.88;5057071;28;46866;-73
2023/02/11 01:43:45;;;;;;;;;58.00;46.75;;;;;7.00;100.00;103499.13;5040081;28;45596;-73
2023/02/11 01:46:19;;;;;;;;;64.00;46.00;;;;;6.98;100.00;103492.88;5058045;28;45671;-74
2023/02/11 01:48:47;;;;;;;;;65.75;47.00;;;;;7.00;100.00;103500.06;5057277;28;45584;-73
2023/02/11 01:51:16;;;;;;;;;62.50;45.75;;;;;7.00;100.00;103504.41;5040570;28;46701;-73
2023/02/11 01:59:19;;;;;;;;;61.75;48.00;;;;;6.97;100.00;103498.91;5059265;28;45574;-73
2023/02/11 02:01:49;;;;;;;;;65.25;48.00;;;;;6.96;100.00;103505.88;5040247;28;47100;-75
2023/02/11 02:04:17;;;;;;;;;64.00;49.50;;;;;6.95;100.00;103498.81;5040259;28;45561;-73
2023/02/11 02:06:50;;;;;;;;;63.00;49.75;;;;;6.95;100.00;103487.41;5040055;28;45421;-72
2023/02/11 02:09:24;;;;;;;;;65.50;47.50;;;;;6.93;100.00;103482.06;5045993;28;45500;-75
2023/02/11 02:11:50;;;;;;;;;69.75;49.75;;;;;6.95;100.00;103484.78;5057544;28;46372;-73
2023/02/11 02:14:15;;;;;;;;;63.75;47.00;;;;;6.93;100.00;103478.53;5058264;28;45317;-72
2023/02/11 02:16:41;;;;;;;;;59.25;46.00;;;;;6.93;100.00;103481.16;5039944;28;45436;-73
2023/02/11 02:19:22;;;;;;;;;66.00;49.00;;;;;6.93;100.00;103481.16;5058502;28;49725;-72
2023/02/11 02:21:56;;;;;;;;;67.00;51.00;;;;;6.91;100.00;103477.50;5058136;28;46803;-73
2023/02/11 02:24:31;;;;;;;;;59.50;39.50;;;;;6.94;100.00;103477.72;5051835;28;45531;-74
2023/02/11 02:27:31;;;;;;;;;68.00;51.00;;;;;6.94;100.00;103472.47;5056506;28;45373;-75
2023/02/11 02:30:05;;;;;;;;;67.50;51.50;;;;;6.93;100.00;103463.69;5058420;28;45357;-73
2023/02/11 02:32:52;;;;;;;;;71.50;49.75;;;;;6.91;100.00;103467.91;5058145;28;45773;-74
2023/02/11 02:35:47;;;;;;;;;50.00;41.00;;;;;6.92;100.00;103469.72;5058149;28;45719;-73
2023/02/11 02:38:28;;;;;;;;;65.25;48.50;;;;;6.91;100.00;103472.25;5039893;28;45651;-75
2023/02/11 02:41:00;;;;;;;;;71.25;51.00;;;;;6.89;100.00;103474.78;5040242;28;45414;-73
2023/02/11 02:43:26;;;;;;;;;59.00;46.00;;;;;6.88;100.00;103467.69;5032632;28;47072;-73
2023/02/11 02:45:52;;;;;;;;;69.00;48.25;;;;;6.90;100.00;103468.72;5039709;28;45509;-73
2023/02/11 02:48:30;;;;;;;;;64.25;48.00;;;;;6.89;100.00;103460.72;5024069;28;45497;-74
2023/02/11 02:51:21;;;;;;;;;67.25;50.75;;;;;6.91;100.00;103456.47;5058368;28;45324;-73
2023/02/11 02:54:20;;;;;;;;;64.25;46.75;;;;;6.92;100.00;103466.19;5015664;28;46053;-73
2023/02/11 02:56:54;;;;;;;;;72.75;50.50;;;;;6.94;100.00;103461.97;5049928;28;45563;-73
2023/02/11 02:59:23;;;;;;;;;75.75;54.00;;;;;6.92;100.00;103453.94;5038990;28;45416;-73
2023/02/11 03:02:21;;;;;;;;;64.25;52.00;;;;;6.93;100.00;103452.25;5033654;28;45637;-73
2023/02/11 03:04:49;;;;;;;;;67.25;51.50;;;;;6.93;100.00;103452.25;5057506;28;45628;-73
2023/02/11 03:07:46;;;;;;;;;62.50;47.00;;;;;6.93;100.00;103458.44;5057153;28;45456;-73
2023/02/11 03:10:19;;;;;;;;;65.00;49.00;;;;;6.89;100.00;103444.97;5030125;28;45490;-75
2023/02/11 03:12:46;;;;;;;;;62.25;47.50;;;;;6.89;100.00;103445.88;5039907;28;45742;-73
2023/02/11 03:15:11;;;;;;;;;65.50;46.00;;;;;6.89;100.00;103447.59;5057168;28;52001;-74
2023/02/11 03:17:40;;;;;;;;;65.50;49.50;;;;;6.85;100.00;103438.59;5039624;28;45275;-72
2023/02/11 03:20:09;;;;;;;;;52.00;40.50;;;;;6.90;100.00;103459.91;5039404;28;45548;-72
2023/02/11 03:22:48;;;;;;;;;59.50;44.50;;;;;6.90;100.00;103452.03;5039476;28;45362;-73
2023/02/11 03:25:14;;;;;;;;;62.25;49.25;;;;;6.88;100.00;103443.16;5057365;28;46092;-75
2023/02/11 03:28:16;;;;;;;;;68.00;47.75;;;;;6.89;100.00;103450.22;5057160;28;45379;-73
2023/02/11 03:30:49;;;;;;;;;62.75;48.75;;;;;6.86;100.00;103443.03;5038695;28;45204;-73
2023/02/11 03:33:30;;;;;;;;;59.00;43.25;;;;;6.87;100.00;103442.25;5039656;28;45440;-73
2023/02/11 03:35:56;;;;;;;;;66.75;48.75;;;;;6.86;100.00;103442.13;5036767;28;46581;-73
2023/02/11 03:38:29;;;;;;;;;66.00;46.75;;;;;6.84;100.00;103436.78;5039292;28;45297;-74
2023/02/11 03:40:55;;;;;;;;;62.50;47.00;;;;;6.85;100.00;103435.97;5036878;28;45227;-73
2023/02/11 03:43:25;;;;;;;;;64.50;47.50;;;;;6.83;100.00;103443.75;5039464;28;45441;-73
2023/02/11 03:45:51;;;;;;;;;66.25;49.25;;;;;6.80;100.00;103437.38;5038535;28;45691;-73
2023/02/11 03:48:21;;;;;;;;;65.25;47.00;;;;;6.82;100.00;103452.44;5038266;28;45306;-73
2023/02/11 03:50:47;;;;;;;;;56.00;41.50;;;;;6.79;100.00;103446.06;5038883;28;45324;-74
2023/02/11 03:53:14;;;;;;;;;69.75;51.50;;;;;6.80;100.00;103445.25;5039122;28;49642;-74
2023/02/11 03:55:40;;;;;;;;;60.75;47.25;;;;;6.78;100.00;103433.75;5038760;28;46865;-73
2023/02/11 03:58:06;;;;;;;;;68.00;51.00;;;;;6.76;100.00;103436.25;5034896;28;62139;-72
2023/02/11 04:00:35;;;;;;;;;63.00;47.25;;;;;6.72;100.00;103430.69;5056131;28;55334;-74
2023/02/11 04:03:00;;;;;;;;;64.00;48.75;;;;;6.69;100.00;103436.63;5055832;28;45237;-73
2023/02/11 04:05:26;;;;;;;;;60.50;46.75;;;;;6.70;100.00;103434.91;5056280;28;45625;-73
2023/02/11 04:07:51;;;;;;;;;64.75;47.00;;;;;6.67;100.00;103433.00;5057154;28;45491;-73
2023/02/11 04:10:16;;;;;;;;;59.25;45.00;;;;;6.63;100.00;103427.44;5056433;28;50733;-74
2023/02/11 04:12:42;;;;;;;;;64.25;47.75;;;;;6.64;100.00;103447.63;5039073;28;45275;-72
2023/02/11 04:15:08;;;;;;;;;66.00;47.75;;;;;6.60;100.00;103442.97;5055522;28;56086;-73
2023/02/11 04:17:33;;;;;;;;;61.75;50.00;;;;;6.57;100.00;103455.09;5056780;28;45601;-74
2023/02/11 04:19:58;;;;;;;;;60.50;47.75;;;;;6.56;100.00;103458.53;5055450;28;52340;-72
2023/02/11 04:22:24;;;;;;;;;64.25;49.25;;;;;6.54;100.00;103451.31;5056370;28;55296;-72
2023/02/11 04:24:49;;;;;;;;;65.25;49.00;;;;;6.53;100.00;103457.38;5037836;28;52003;-72
2023/02/11 04:27:15;;;;;;;;;63.50;48.00;;;;;6.48;100.00;103451.81;5037662;28;60480;-73
2023/02/11 04:29:40;;;;;;;;;60.00;46.75;;;;;6.47;100.00;103450.00;5056330;28;45448;-73
2023/02/11 04:32:05;;;;;;;;;62.75;47.50;;;;;6.47;100.00;103452.63;5056416;28;45601;-74
2023/02/11 04:34:31;;;;;;;;;73.25;50.00;;;;;6.47;100.00;103456.97;5038240;28;45892;-72
2023/02/11 04:36:56;;;;;;;;;56.50;43.50;;;;;6.44;100.00;103451.47;5021055;28;56975;-74
2023/02/11 04:39:21;;;;;;;;;66.50;50.50;;;;;6.46;100.00;103465.66;5038196;28;48443;-73
2023/02/11 04:41:47;;;;;;;;;33.00;16.00;;;;;6.41;100.00;103457.44;5056103;28;52456;-74
2023/02/11 04:44:12;;;;;;;;;62.00;48.00;;;;;6.42;100.00;103463.59;5055440;28;57352;-73
2023/02/11 04:46:37;;;;;;;;;67.25;48.00;;;;;6.37;100.00;103463.28;5059187;28;45243;-74
2023/02/11 04:49:03;;;;;;;;;55.75;43.75;;;;;6.36;100.00;103466.72;5055829;28;45487;-73
2023/02/11 04:51:28;;;;;;;;;66.25;47.00;;;;;6.34;100.00;103462.13;5056398;28;45342;-73
2023/02/11 04:53:54;;;;;;;;;57.50;46.00;;;;;6.30;100.00;103450.53;5055904;28;46614;-74
2023/02/11 04:56:19;;;;;;;;;66.00;49.25;;;;;6.30;100.00;103454.06;5055106;28;58795;-73
2023/02/11 04:58:45;;;;;;;;;63.25;46.50;;;;;6.30;100.00;103450.53;5055298;28;46089;-75
2023/02/11 05:01:13;;;;;;;;;65.00;48.25;;;;;6.28;100.00;103450.44;5054147;28;45619;-74
2023/02/11 05:03:38;;;;;;;;;61.25;48.00;;;;;6.24;100.00;103448.41;5037678;28;46771;-73
2023/02/11 05:06:04;;;;;;;;;60.00;46.00;;;;;6.24;100.00;103448.41;5037261;28;58869;-72
2023/02/11 05:08:29;;;;;;;;;60.75;48.50;;;;;6.24;100.00;103443.16;5055662;28;45457;-73
2023/02/11 05:10:55;;;;;;;;;56.25;42.00;;;;;6.23;100.00;103443.97;5055395;28;46307;-72
2023/02/11 05:13:20;;;;;;;;;60.75;42.25;;;;;6.22;100.00;103441.19;5055888;28;47220;-73
2023/02/11 05:15:45;;;;;;;;;61.00;45.75;;;;;6.18;100.00;103426.03;5053914;28;45472;-73
2023/02/11 05:18:11;;;;;;;;;62.75;47.75;;;;;6.18;100.00;103431.28;5055238;28;54430;-73
2023/02/11 05:20:37;;;;;;;;;70.50;50.75;;;;;6.18;100.00;103434.84;5054093;28;45428;-73
2023/02/11 05:23:03;;;;;;;;;63.50;49.75;;;;;6.16;100.00;103428.56;5037833;28;45910;-73
2023/02/11 05:25:28;;;;;;;;;60.75;45.00;;;;;6.18;100.00;103424.34;5037098;28;50819;-73
2023/02/11 05:27:54;;;;;;;;;58.25;42.25;;;;;6.15;100.00;103432.00;5055715;28;45239;-73
2023/02/11 05:30:19;;;;;;;;;63.25;47.00;;;;;6.13;100.00;103420.50;5020464;28;54699;-73
2023/02/11 05:32:44;;;;;;;;;68.00;48.25;;;;;6.13;100.00;103436.25;5055236;28;47183;-73
2023/02/11 05:35:10;;;;;;;;;61.00;47.75;;;;;6.13;100.00;103436.25;5036980;28;54306;-73
2023/02/11 05:37:35;;;;;;;;;67.00;48.50;;;;;6.10;100.00;103430.75;5036715;28;54579;-73
2023/02/11 05:40:00;;;;;;;;;59.25;47.25;;;;;6.10;100.00;103432.47;5055259;28;52846;-73
2023/02/11 05:42:26;;;;;;;;;56.25;43.50;;;;;6.09;100.00;103428.03;5037378;28;45827;-73
2023/02/11 05:44:51;;;;;;;;;60.50;49.25;;;;;6.09;100.00;103436.81;5055301;28;45294;-73
2023/02/11 05:47:16;;;;;;;;;64.00;47.25;;;;;6.06;100.00;103433.06;5056700;28;51377;-73
2023/02/11 05:49:42;;;;;;;;;54.00;44.50;;;;;6.04;100.00;103432.94;5054671;28;52708;-73
2023/02/11 05:52:07;;;;;;;;;53.75;44.00;;;;;6.05;100.00;103426.91;5036362;28;60375;-73
2023/02/11 05:54:32;;;;;;;;;57.00;46.75;;;;;6.02;100.00;103425.00;5054557;28;59696;-74
2023/02/11 05:56:58;;;;;;;;;51.75;42.50;;;;;6.03;100.00;103425.91;5054907;28;56702;-73
2023/02/11 05:59:23;;;;;;;;;65.50;47.00;;;;;6.03;100.00;103436.38;5036911;28;48599;-73
2023/02/11 06:01:48;;;;;;;;;63.75;47.50;;;;;5.97;100.00;103415.88;5054510;28;45484;-73
2023/02/11 06:04:14;;;;;;;;;48.25;39.75;;;;;5.98;100.00;103415.06;5054400;28;57704;-72
2023/02/11 06:06:39;;;;;;;;;62.25;46.75;;;;;6.00;100.00;103426.56;5054689;28;45417;-72
2023/02/11 06:09:04;;;;;;;;;54.75;44.75;;;;;5.97;100.00;103421.13;5054444;28;55631;-75
2023/02/11 06:11:30;;;;;;;;;62.75;46.25;;;;;5.98;100.00;103408.91;5055083;28;56894;-73
2023/02/11 06:13:55;;;;;;;;;62.75;43.50;;;;;5.97;100.00;103410.63;5058526;28;45333;-73
2023/02/11 06:16:21;;;;;;;;;57.75;44.75;;;;;5.95;100.00;103419.19;5057960;28;48825;-72
2023/02/11 06:18:46;;;;;;;;;62.75;46.00;;;;;5.96;100.00;103423.63;5058619;28;45612;-75
2023/02/11 06:21:11;;;;;;;;;56.75;45.00;;;;;5.95;100.00;103427.03;5039659;28;64485;-73
2023/02/11 06:23:37;;;;;;;;;64.50;47.00;;;;;5.93;100.00;103416.47;5058222;28;45492;-73
2023/02/11 06:26:05;;;;;;;;;57.00;41.25;;;;;5.95;100.00;103429.66;5039884;28;45330;-74
2023/02/11 06:28:30;;;;;;;;;60.75;46.25;;;;;5.94;100.00;103433.09;5058497;28;45397;-74
2023/02/11 06:30:57;;;;;;;;;58.75;44.00;;;;;5.88;100.00;103430.00;5039788;28;45497;-73
2023/02/11 06:33:22;;;;;;;;;51.75;43.00;;;;;5.90;100.00;103433.63;5057706;28;45411;-72
2023/02/11 06:35:47;;;;;;;;;56.00;44.00;;;;;5.91;100.00;103432.81;5057037;28;45491;-73
2023/02/11 06:38:13;;;;;;;;;60.75;47.00;;;;;5.91;100.00;103448.56;5058225;28;46179;-73
2023/02/11 06:40:38;;;;;;;;;48.25;40.75;;;;;5.87;100.00;103450.06;5057749;28;46749;-72
2023/02/11 06:43:04;;;;;;;;;62.50;44.25;;;;;5.86;100.00;103449.94;5040062;28;45390;-74
2023/02/11 06:45:29;;;;;;;;;48.75;39.00;;;;;5.83;100.00;103455.88;5057719;28;45491;-73
2023/02/11 06:47:54;;;;;;;;;58.50;46.25;;;;;5.80;100.00;103458.28;5057613;28;56375;-73
2023/02/11 06:50:20;;;;;;;;;46.00;39.25;;;;;5.80;100.00;103453.03;5056920;28;45776;-73
2023/02/11 06:52:45;;;;;;;;;54.50;43.00;;;;;5.79;100.00;103462.59;5039792;28;45488;-75
2023/02/11 06:55:10;;;;;;;;;51.75;40.00;;;;;5.78;100.00;103457.25;5039797;28;46335;-73
2023/02/11 06:57:36;;;;;;;;;68.25;47.25;;;;;5.77;100.00;103458.06;5040061;28;45576;-72
2023/02/11 07:00:01;;;;;;;;;52.25;42.25;;;;;5.75;100.00;103460.59;5057661;28;46515;-72
2023/02/11 07:02:27;;;;;;;;;58.25;43.75;;;;;5.70;100.00;103461.03;5057316;28;45449;-73
2023/02/11 07:04:52;;;;;;;;;59.75;44.50;;;;;5.71;100.00;103478.59;5039744;28;45489;-73
2023/02/11 07:07:17;;;;;;;;;60.50;44.25;;;;;5.69;100.00;103488.94;5038826;28;53537;-72
2023/02/11 07:09:43;;;;;;;;;53.00;45.50;;;;;5.64;100.00;103479.84;5057933;28;55717;-73
2023/02/11 07:12:10;;;;;;;;;62.50;44.25;;;;;5.65;100.00;103484.31;5057649;28;45458;-73
2023/02/11 07:14:35;;;;;;;;;55.50;45.75;;;;;5.65;100.00;103479.06;5058083;28;45602;-73
2023/02/11 07:17:02;;;;;;;;;59.50;47.50;;;;;5.64;100.00;103478.94;5057593;28;45239;-74
2023/02/11 07:19:28;;;;;;;;;58.50;45.00;;;;;5.67;100.00;103485.31;5032381;28;45878;-73
2023/02/11 07:21:54;;;;;;;;;63.75;44.50;;;;;5.69;100.00;103495.91;5056948;28;54307;-74
2023/02/11 07:24:19;;;;;;;;;53.50;42.25;;;;;5.71;100.00;103474.25;5056269;28;45302;-72
2023/02/11 07:26:44;;;;;;;;;66.50;47.75;;;;;5.74;100.00;103486.66;5057522;28;45326;-75
2023/02/11 07:29:10;;;;;;;;;68.50;52.00;;;;;5.77;100.00;103495.69;5039197;28;48683;-73
2023/02/11 07:31:35;;;;;;;;;59.25;50.00;;;;;5.79;100.00;103495.78;5055916;28;45578;-74
2023/02/11 07:34:02;;;;;;;;;67.75;49.00;;;;;5.78;100.00;103494.88;5056692;28;45542;-73
2023/02/11 07:36:29;;;;;;;;;57.00;47.25;;;;;5.75;100.00;103498.97;5039304;28;45342;-73
2023/02/11 07:38:54;;;;;;;;;60.75;48.00;;;;;5.84;100.00;103511.84;5038610;28;46560;-74
2023/02/11 07:41:21;;;;;;;;;63.25;44.00;;;;;5.87;100.00;103505.13;5039457;28;45271;-73
2023/02/11 07:43:47;;;;;;;;;64.25;46.75;;;;;5.89;100.00;103500.00;5039462;28;45326;-73
2023/02/11 07:46:18;;;;;;;;;65.75;47.75;;;;;5.88;100.00;103495.56;5057231;28;47244;-73
2023/02/11 07:48:43;;;;;;;;;66.25;47.25;;;;;5.92;100.00;103495.03;5056338;28;45948;-73
2023/02/11 07:51:25;;;;;;;;;63.75;47.75;;;;;5.94;100.00;103494.31;5055338;28;57501;-73
2023/02/11 07:53:51;;;;;;;;;60.00;47.00;;;;;5.99;100.00;103497.28;5039120;28;45315;-73
2023/02/11 07:56:18;;;;;;;;;63.75;48.00;;;;;6.01;100.00;103499.19;5056685;28;47174;-73
2023/02/11 07:58:43;;;;;;;;;62.75;48.00;;;;;6.03;100.00;103483.59;5056578;28;46605;-73
2023/02/11 08:01:11;;;;;;;;;63.00;44.00;;;;;6.11;100.00;103486.75;5171964;22;45861;-73
2023/02/11 08:03:37;;;;;;;;;58.00;43.00;;;;;6.17;100.00;103488.09;5056194;28;45514;-73
2023/02/11 08:06:09;;;;;;;;;58.00;41.75;;;;;6.23;100.00;103485.94;5050077;28;45665;-73
2023/02/11 08:08:35;;;;;;;;;65.50;49.25;;;;;6.36;100.00;103497.28;5030285;28;45794;-73
2023/02/11 08:11:12;;;;;;;;;64.75;48.75;;;;;6.48;100.00;103485.94;5049125;28;45539;-74
2023/02/11 08:13:38;;;;;;;;;59.75;46.25;;;;;6.60;100.00;103495.47;5011308;28;46726;-73
2023/02/11 08:16:04;;;;;;;;;60.75;47.25;;;;;6.72;100.00;103502.50;5031359;28;45658;-73
2023/02/11 08:18:31;;;;;;;;;59.75;47.25;;;;;6.80;100.00;103489.88;5030257;28;46681;-75
2023/02/11 08:20:56;;;;;;;;;64.75;46.00;;;;;6.98;100.00;103498.13;5055162;28;45513;-75
2023/02/11 08:23:21;;;;;;;;;61.00;49.50;;;;;7.09;100.00;103497.16;5052111;28;55945;-76
2023/02/11 08:25:47;;;;;;;;;61.75;47.00;;;;;7.20;100.00;103498.78;5046850;28;45891;-75
2023/02/11 08:28:12;;;;;;;;;64.25;49.75;;;;;7.26;100.00;103493.94;5028768;28;60580;-75
2023/02/11 08:30:37;;;;;;;;;59.75;44.75;;;;;7.37;100.00;103497.28;5052612;28;45436;-75
2023/02/11 08:33:03;;;;;;;;;64.75;50.00;;;;;7.46;100.00;103505.78;5046150;28;48019;-74
2023/02/11 08:35:28;;;;;;;;;67.00;50.75;;;;;7.50;100.00;103488.47;5032828;28;55289;-75
2023/02/11 08:37:53;;;;;;;;;63.25;49.25;;;;;7.56;100.00;103495.06;5053800;28;53177;-75
2023/02/11 08:40:19;;;;;;;;;66.50;50.25;;;;;7.58;100.00;103501.34;5052876;28;46195;-75
2023/02/11 08:42:44;;;;;;;;;62.50;47.50;;;;;7.65;100.00;103501.72;5050308;28;45595;-76
2023/02/11 08:45:11;;;;;;;;;63.00;48.25;;;;;7.69;100.00;103503.75;5031308;28;50362;-75
2023/02/11 08:47:37;;;;;;;;;54.00;45.25;;;;;7.71;100.00;103494.25;5028314;28;46505;-75
2023/02/11 08:50:03;;;;;;;;;64.50;47.50;;;;;7.77;100.00;103494.63;5046394;28;46585;-76
2023/02/11 08:52:28;;;;;;;;;58.75;44.75;;;;;7.85;100.00;103503.94;5038792;28;45844;-74
2023/02/11 08:54:54;;;;;;;;;58.25;44.75;;;;;7.90;100.00;103502.53;5031313;28;49536;-75
2023/02/11 08:57:19;;;;;;;;;62.00;46.00;;;;;7.95;100.00;103494.94;5035095;28;46114;-74
2023/02/11 09:00:35;;;;;;;;;55.50;44.00;;;;;8.04;100.00;103503.41;5052023;28;59491;-75
2023/02/11 09:03:23;;;;;;;;;51.00;45.25;;;;;8.04;100.00;103500.75;5047381;28;45737;-75
2023/02/11 09:05:51;;;;;;;;;61.25;44.25;;;;;8.14;100.00;103503.19;5026320;28;45441;-74
2023/02/11 09:08:17;;;;;;;;;66.50;45.75;;;;;8.22;100.00;103506.31;5028432;28;46155;-74
2023/02/11 09:10:42;;;;;;;;;62.25;46.75;;;;;8.28;100.00;103512.88;5029271;28;45465;-73
2023/02/11 09:13:08;;;;;;;;;61.50;49.00;;;;;8.32;100.00;103511.34;5033321;28;45342;-74
2023/02/11 09:15:33;;;;;;;;;63.75;48.50;;;;;8.36;100.00;103509.03;5010746;28;45466;-76
2023/02/11 09:17:59;;;;;;;;;77.00;58.25;;;;;8.37;100.00;103507.31;5028556;28;57146;-77
2023/02/11 09:20:26;;;;;;;;;71.25;53.75;;;;;8.42;100.00;103516.41;5012302;28;45437;-75
2023/02/11 09:22:51;;;;;;;;;68.25;54.25;;;;;8.46;100.00;103514.88;5008820;28;45355;-73
2023/02/11 09:25:17;;;;;;;;;66.75;46.00;;;;;8.50;100.00;103509.91;5005267;28;45721;-74
2023/02/11 09:27:42;;;;;;;;;67.75;51.25;;;;;8.54;100.00;103511.00;5023030;28;61191;-73
2023/02/11 09:30:08;;;;;;;;;66.25;47.25;;;;;8.64;100.00;103513.41;5031156;28;51879;-73
2023/02/11 09:32:34;;;;;;;;;59.25;44.75;;;;;8.70;100.00;103513.78;5012299;28;45533;-77
2023/02/11 09:34:59;;;;;;;;;60.25;44.50;;;;;8.77;100.00;103505.41;5009711;28;45420;-74
2023/02/11 09:37:24;;;;;;;;;58.75;45.25;;;;;8.83;100.00;103512.78;5011438;28;64354;-74
2023/02/11 09:39:50;;;;;;;;;56.00;41.50;;;;;8.86;100.00;103507.72;5026043;28;55447;-74
2023/02/11 09:42:36;;;;;;;;;55.00;41.75;;;;;8.98;100.00;103516.34;5003627;28;45501;-72
2023/02/11 09:45:04;;;;;;;;;42.50;38.00;;;;;9.06;100.00;103517.75;5021836;28;45672;-71
2023/02/11 09:47:32;;;;;;;;;54.75;41.25;;;;;9.11;100.00;103523.28;5030937;28;46520;-71
2023/02/11 09:50:09;;;;;;;;;51.50;41.00;;;;;9.14;100.00;103534.91;5031703;28;45439;-70
2023/02/11 09:52:53;;;;;;;;;48.50;34.50;;;;;9.19;100.00;103527.28;5019212;28;45516;-74
2023/02/11 09:55:42;;;;;;;;;57.25;41.25;;;;;9.24;100.00;103525.81;5031102;28;45523;-73
2023/02/11 09:58:27;;;;;;;;;51.75;40.75;;;;;9.27;100.00;103522.44;5002961;28;47723;-74
2023/02/11 10:01:12;;;;;;;;;47.50;40.75;;;;;9.34;100.00;103532.56;5007244;28;45685;-74
2023/02/11 10:03:49;;;;;;;;;54.50;39.75;;;;;9.37;100.00;103524.81;5027173;28;45465;-73
2023/02/11 10:06:33;;;;;;;;;47.25;41.50;;;;;9.45;100.00;103524.47;5025182;28;45492;-73
2023/02/11 10:09:15;;;;;;;;;42.25;36.50;;;;;9.51;100.00;103528.28;5017611;28;47845;-74
2023/02/11 10:12:21;;;;;;;;;58.50;42.75;;;;;9.55;100.00;103527.66;5025409;28;45534;-73
2023/02/11 10:15:27;;;;;;;;;54.25;40.00;;;;;9.57;100.00;103524.25;5027542;28;45522;-74
2023/02/11 10:18:02;;;;;;;;;50.25;39.75;;;;;9.55;100.00;103527.66;5012035;28;45811;-74
2023/02/11 10:20:38;;;;;;;;;49.25;40.75;;;;;9.44;100.00;103527.94;5023698;28;45751;-77
2023/02/11 10:23:24;;;;;;;;;60.50;40.50;;;;;9.37;100.00;103533.63;4993679;28;46239;-77
2023/02/11 10:25:53;;;;;;;;;58.50;42.50;;;;;9.40;100.00;103527.66;5010450;28;45711;-76
2023/02/11 10:28:39;;;;;;;;;55.00;40.50;;;;;9.44;100.00;103521.75;5031454;28;45568;-75
2023/02/11 10:31:10;;;;;;;;;52.00;42.00;;;;;9.46;100.00;103514.81;5032762;28;45653;-78
2023/02/11 10:34:06;;;;;;;;;53.50;42.50;;;;;9.45;100.00;103526.19;5010814;28;45560;-73
2023/02/11 10:36:37;;;;;;;;;57.50;43.00;;;;;9.44;100.00;103529.66;5018707;28;46116;-74
2023/02/11 10:39:17;;;;;;;;;52.75;41.25;;;;;9.51;100.00;103534.47;5027886;28;45530;-74
2023/02/11 10:41:45;;;;;;;;;55.50;38.75;;;;;9.56;100.00;103519.81;5008829;28;45501;-74
2023/02/11 10:44:32;;;;;;;;;54.00;39.75;;;;;9.66;100.00;103532.72;5005921;28;45634;-75
2023/02/11 10:47:04;;;;;;;;;58.75;40.50;;;;;9.79;100.00;103523.78;5025380;28;45408;-76
2023/02/11 10:49:36;;;;;;;;;47.00;36.75;;;;;9.90;100.00;103521.75;5004265;28;45608;-75
2023/02/11 10:52:16;;;;;;;;;34.50;24.25;;;;;10.07;100.00;103520.09;5007574;28;46659;-72
2023/02/11 10:54:57;;;;;;;;;55.25;43.50;;;;;10.19;100.00;103531.31;5028806;28;45342;-74
2023/02/11 10:57:29;;;;;;;;;57.75;43.00;;;;;10.35;100.00;103522.56;5034253;28;45381;-72
2023/02/11 11:00:02;;;;;;;;;49.50;40.25;;;;;10.46;100.00;103530.22;5015419;28;45434;-76
2023/02/11 11:02:33;;;;;;;;;48.25;41.50;;;;;10.56;100.00;103525.47;5029178;28;45808;-75
2023/02/11 11:05:15;;;;;;;;;51.00;38.75;;;;;10.67;100.00;103524.28;5019138;28;45465;-74
2023/02/11 11:07:51;;;;;;;;;52.25;41.50;;;;;10.77;100.00;103534.53;5012754;28;45533;-75
2023/02/11 11:10:26;;;;;;;;;45.25;38.50;;;;;10.84;100.00;103523.47;5005785;28;45506;-74
2023/02/11 11:12:51;;;;;;;;;53.75;41.00;;;;;10.89;100.00;103518.41;5033993;28;46733;-72
2023/02/11 11:15:21;;;;;;;;;49.25;40.25;;;;;10.96;100.00;103512.63;5026657;28;45543;-74
2023/02/11 11:18:09;;;;;;;;;53.25;39.00;;;;;10.97;100.00;103507.44;5011432;28;45409;-75
2023/02/11 11:20:35;;;;;;;;;51.00;41.00;;;;;11.00;100.00;103509.31;5024388;28;45615;-74
2023/02/11 11:23:16;;;;;;;;;57.50;44.00;;;;;11.07;100.00;103513.16;5023564;28;45689;-74
2023/02/11 11:25:45;;;;;;;;;53.00;42.00;;;;;11.13;100.00;103506.50;5018772;28;45452;-75